Time;durP1;ratioP1;P1;durP2;ratioP2;P2;SDS_P1;SDS_P2;PMS_P1;PMS_P2;Temp;Humidity;BMP_temperature;BMP_pressure;BME280_temperature;BME280_humidity;BME280_pressure;Samples;Min_cycle;Max_cycle;Signal;HPM_P1;HPM_P2
2020/12/22 00:01:13;;;;;;;;;;;;;;;;;;5079959;28;20385;-82
2020/12/22 00:03:39;;;;;;;;;;;;;;;;;;5095000;28;20504;-83
2020/12/22 00:06:05;;;;;;;;;;;;;;;;;;5095771;28;20842;-83
2020/12/22 00:08:32;;;;;;;;;;;;;;;;;;5082437;28;20493;-83
2020/12/22 00:10:58;;;;;;;;;;;;;;;;;;5099235;28;20382;-82
2020/12/22 00:13:24;;;;;;;;;;;;;;;;;;5097038;28;20758;-84
2020/12/22 00:15:51;;;;;;;;;;;;;;;;;;5079437;28;19921;-86
2020/12/22 00:18:17;;;;;;;;;;;;;;;;;;5098721;28;20271;-88
2020/12/22 00:20:43;;;;;;;;;;;;;;;;;;5077755;28;20219;-87
2020/12/22 00:23:10;;;;;;;;;;;;;;;;;;5077896;28;19924;-90
2020/12/22 00:25:36;;;;;;;;;;;;;;;;;;5078195;28;19928;-90
2020/12/22 00:28:03;;;;;;;;;;;;;;;;;;5078249;28;20391;-90
2020/12/22 00:30:29;;;;;;;;;;;;;;;;;;5098755;28;20886;-91
2020/12/22 00:32:56;;;;;;;;;;;;;;;;;;5099325;28;20827;-91
2020/12/22 00:35:22;;;;;;;;;;;;;;;;;;5088554;28;20439;-91
2020/12/22 00:37:49;;;;;;;;;;;;;;;;;;5100761;28;20402;-91
2020/12/22 00:40:15;;;;;;;;;;;;;;;;;;5087714;28;20472;-92
2020/12/22 00:42:42;;;;;;;;;;;;;;;;;;5077410;28;20417;-91
2020/12/22 00:45:08;;;;;;;;;;;;;;;;;;5095468;28;20383;-91
2020/12/22 00:47:35;;;;;;;;;;;;;;;;;;5098520;28;20394;-91
2020/12/22 00:50:02;;;;;;;;;;;;;;;;;;5096760;28;20414;-91
2020/12/22 00:52:28;;;;;;;;;;;;;;;;;;5098336;28;20796;-91
2020/12/22 00:54:55;;;;;;;;;;;;;;;;;;5112207;28;20449;-91
2020/12/22 00:57:21;;;;;;;;;;;;;;;;;;5107932;28;20416;-91
2020/12/22 00:59:48;;;;;;;;;;;;;;;;;;5099771;28;20386;-91
2020/12/22 01:02:14;;;;;;;;;;;;;;;;;;5099831;28;20456;-91
2020/12/22 01:04:40;;;;;;;;;;;;;;;;;;5117414;28;20389;-91
2020/12/22 01:07:07;;;;;;;;;;;;;;;;;;5099840;28;20425;-92
2020/12/22 01:09:33;;;;;;;;;;;;;;;;;;5097882;28;20795;-91
2020/12/22 01:12:00;;;;;;;;;;;;;;;;;;5088667;28;20780;-92
2020/12/22 01:14:27;;;;;;;;;;;;;;;;;;5076364;28;20421;-91
2020/12/22 01:16:53;;;;;;;;;;;;;;;;;;5076258;28;20918;-89
2020/12/22 01:19:20;;;;;;;;;;;;;;;;;;5082367;28;20387;-89
2020/12/22 01:21:48;;;;;;;;;;;;;;;;;;5086637;28;20378;-87
2020/12/22 01:24:15;;;;;;;;;;;;;;;;;;5086670;28;20398;-88
2020/12/22 01:26:41;;;;;;;;;;;;;;;;;;5077557;28;20377;-85
2020/12/22 01:29:07;;;;;;;;;;;;;;;;;;5079993;28;20385;-85
2020/12/22 01:31:34;;;;;;;;;;;;;;;;;;5097391;28;20382;-85
2020/12/22 01:34:00;;;;;;;;;;;;;;;;;;5079641;28;20394;-85
2020/12/22 01:36:27;;;;;;;;;;;;;;;;;;5096307;28;20813;-86
2020/12/22 01:38:53;;;;;;;;;;;;;;;;;;5099377;28;20448;-86
2020/12/22 01:41:19;;;;;;;;;;;;;;;;;;5114861;28;20378;-86
2020/12/22 01:43:46;;;;;;;;;;;;;;;;;;5080392;28;20863;-86
2020/12/22 01:46:12;;;;;;;;;;;;;;;;;;5076757;28;20378;-86
2020/12/22 01:48:39;;;;;;;;;;;;;;;;;;5076258;28;20409;-86
2020/12/22 01:51:05;;;;;;;;;;;;;;;;;;5083374;28;20443;-85
2020/12/22 01:53:31;;;;;;;;;;;;;;;;;;5079785;28;20381;-85
2020/12/22 01:55:58;;;;;;;;;;;;;;;;;;5087441;28;20406;-85
2020/12/22 01:58:24;;;;;;;;;;;;;;;;;;5089189;28;20381;-84
2020/12/22 02:00:51;;;;;;;;;;;;;;;;;;5091929;28;20389;-84
2020/12/22 02:03:17;;;;;;;;;;;;;;;;;;5078093;28;20396;-84
2020/12/22 02:05:43;;;;;;;;;;;;;;;;;;5082605;28;20379;-84
2020/12/22 02:08:10;;;;;;;;;;;;;;;;;;5089495;28;20401;-84
2020/12/22 02:10:36;;;;;;;;;;;;;;;;;;5077352;28;20397;-84
2020/12/22 02:13:03;;;;;;;;;;;;;;;;;;5081770;28;20796;-85
2020/12/22 02:15:29;;;;;;;;;;;;;;;;;;5086075;28;20451;-85
2020/12/22 02:17:55;;;;;;;;;;;;;;;;;;5091722;28;20389;-85
2020/12/22 02:20:22;;;;;;;;;;;;;;;;;;5099433;28;20378;-85
2020/12/22 02:22:48;;;;;;;;;;;;;;;;;;5081103;28;20398;-85
2020/12/22 02:25:14;;;;;;;;;;;;;;;;;;5089336;28;20378;-85
2020/12/22 02:27:41;;;;;;;;;;;;;;;;;;5085915;28;20397;-85
2020/12/22 02:30:07;;;;;;;;;;;;;;;;;;5083024;28;20737;-85
2020/12/22 02:32:34;;;;;;;;;;;;;;;;;;5080548;28;20395;-85
2020/12/22 02:35:00;;;;;;;;;;;;;;;;;;5089270;28;20378;-85
2020/12/22 02:37:26;;;;;;;;;;;;;;;;;;5080777;28;20405;-85
2020/12/22 02:39:53;;;;;;;;;;;;;;;;;;5081985;28;20384;-85
2020/12/22 02:42:19;;;;;;;;;;;;;;;;;;5082077;28;20377;-85
2020/12/22 02:44:45;;;;;;;;;;;;;;;;;;5082645;28;20386;-85
2020/12/22 02:47:12;;;;;;;;;;;;;;;;;;5080493;28;20402;-85
2020/12/22 02:49:38;;;;;;;;;;;;;;;;;;5080559;28;20400;-85
2020/12/22 02:52:05;;;;;;;;;;;;;;;;;;5082803;28;20385;-85
2020/12/22 02:54:31;;;;;;;;;;;;;;;;;;5096154;28;20382;-85
2020/12/22 02:56:57;;;;;;;;;;;;;;;;;;5107500;28;20410;-85
2020/12/22 02:59:24;;;;;;;;;;;;;;;;;;5106618;28;20408;-85
2020/12/22 03:01:50;;;;;;;;;;;;;;;;;;5116395;28;20383;-84
2020/12/22 03:04:17;;;;;;;;;;;;;;;;;;5101550;28;20399;-85
2020/12/22 03:06:43;;;;;;;;;;;;;;;;;;5101095;28;20387;-84
2020/12/22 03:09:09;;;;;;;;;;;;;;;;;;5084932;28;20405;-84
2020/12/22 03:11:36;;;;;;;;;;;;;;;;;;5099647;28;20688;-84
2020/12/22 03:14:02;;;;;;;;;;;;;;;;;;5095772;28;20386;-84
2020/12/22 03:16:28;;;;;;;;;;;;;;;;;;5100647;28;20407;-84
2020/12/22 03:18:55;;;;;;;;;;;;;;;;;;5084182;28;20386;-84
2020/12/22 03:21:21;;;;;;;;;;;;;;;;;;5093325;28;20389;-83
2020/12/22 03:23:47;;;;;;;;;;;;;;;;;;5097694;28;20384;-86
2020/12/22 03:26:14;;;;;;;;;;;;;;;;;;5099707;28;20389;-86
2020/12/22 03:28:40;;;;;;;;;;;;;;;;;;5094467;28;20408;-86
2020/12/22 03:31:07;;;;;;;;;;;;;;;;;;5079879;28;20394;-86
2020/12/22 03:33:33;;;;;;;;;;;;;;;;;;5081757;28;20388;-86
2020/12/22 03:35:59;;;;;;;;;;;;;;;;;;5080562;28;20374;-86
2020/12/22 03:38:26;;;;;;;;;;;;;;;;;;5084332;28;20897;-86
2020/12/22 03:40:52;;;;;;;;;;;;;;;;;;5081623;28;20373;-86
2020/12/22 03:43:18;;;;;;;;;;;;;;;;;;5093415;28;20389;-87
2020/12/22 03:45:45;;;;;;;;;;;;;;;;;;5085426;28;20377;-87
2020/12/22 03:48:11;;;;;;;;;;;;;;;;;;5093028;28;20773;-87
2020/12/22 03:50:38;;;;;;;;;;;;;;;;;;5103559;28;20375;-86
2020/12/22 03:53:04;;;;;;;;;;;;;;;;;;5104072;28;20394;-86
2020/12/22 03:55:30;;;;;;;;;;;;;;;;;;5095486;28;20730;-86
2020/12/22 03:57:57;;;;;;;;;;;;;;;;;;5100380;28;20424;-85
2020/12/22 04:00:23;;;;;;;;;;;;;;;;;;5107609;28;20398;-85
2020/12/22 04:02:49;;;;;;;;;;;;;;;;;;5094590;28;20378;-85
2020/12/22 04:05:16;;;;;;;;;;;;;;;;;;5101822;28;20391;-84
2020/12/22 04:07:42;;;;;;;;;;;;;;;;;;5109134;28;20396;-84
2020/12/22 04:10:09;;;;;;;;;;;;;;;;;;5113842;28;20383;-85
2020/12/22 04:12:36;;;;;;;;;;;;;;;;;;5102342;28;20383;-85
2020/12/22 04:15:02;;;;;;;;;;;;;;;;;;5103165;28;20421;-85
2020/12/22 04:17:28;;;;;;;;;;;;;;;;;;5102341;28;20406;-85
2020/12/22 04:19:55;;;;;;;;;;;;;;;;;;5099481;28;20839;-85
2020/12/22 04:22:21;;;;;;;;;;;;;;;;;;5082699;28;20390;-85
2020/12/22 04:24:48;;;;;;;;;;;;;;;;;;5082219;28;20393;-85
2020/12/22 04:27:14;;;;;;;;;;;;;;;;;;5097373;28;20398;-85
2020/12/22 04:29:40;;;;;;;;;;;;;;;;;;5087016;28;20378;-85
2020/12/22 04:32:07;;;;;;;;;;;;;;;;;;5082471;28;20454;-85
2020/12/22 04:34:33;;;;;;;;;;;;;;;;;;5081959;28;20373;-85
2020/12/22 04:36:59;;;;;;;;;;;;;;;;;;5081086;28;20462;-84
2020/12/22 04:39:26;;;;;;;;;;;;;;;;;;5081789;28;20386;-84
2020/12/22 04:41:52;;;;;;;;;;;;;;;;;;5082853;28;20770;-84
2020/12/22 04:44:19;;;;;;;;;;;;;;;;;;5081864;28;20386;-84
2020/12/22 04:46:45;;;;;;;;;;;;;;;;;;5081894;28;20835;-84
2020/12/22 04:49:12;;;;;;;;;;;;;;;;;;5081968;28;20378;-84
2020/12/22 04:51:38;;;;;;;;;;;;;;;;;;5081536;28;20374;-84
2020/12/22 04:54:04;;;;;;;;;;;;;;;;;;5081669;28;20405;-84
2020/12/22 04:56:31;;;;;;;;;;;;;;;;;;5081438;28;20405;-84
2020/12/22 04:58:57;;;;;;;;;;;;;;;;;;5082264;28;20393;-84
2020/12/22 05:01:23;;;;;;;;;;;;;;;;;;5082106;28;20374;-84
2020/12/22 05:03:50;;;;;;;;;;;;;;;;;;5084450;28;20381;-84
2020/12/22 05:06:16;;;;;;;;;;;;;;;;;;5082802;28;20389;-84
2020/12/22 05:08:43;;;;;;;;;;;;;;;;;;5079697;28;20885;-84
2020/12/22 05:11:09;;;;;;;;;;;;;;;;;;5079126;28;20427;-84
2020/12/22 05:13:35;;;;;;;;;;;;;;;;;;5079736;28;20389;-84
2020/12/22 05:16:02;;;;;;;;;;;;;;;;;;5078022;28;20758;-84
2020/12/22 05:18:28;;;;;;;;;;;;;;;;;;5079733;28;20401;-84
2020/12/22 05:20:56;;;;;;;;;;;;;;;;;;5078679;28;20370;-84
2020/12/22 05:23:22;;;;;;;;;;;;;;;;;;5079852;28;20872;-84
2020/12/22 05:25:49;;;;;;;;;;;;;;;;;;5078984;28;20397;-84
2020/12/22 05:28:15;;;;;;;;;;;;;;;;;;5079104;28;20398;-84
2020/12/22 05:30:42;;;;;;;;;;;;;;;;;;5078689;28;20381;-84
2020/12/22 05:33:08;;;;;;;;;;;;;;;;;;5080617;28;20377;-84
2020/12/22 05:35:34;;;;;;;;;;;;;;;;;;5083119;28;20390;-84
2020/12/22 05:38:01;;;;;;;;;;;;;;;;;;5090156;28;20405;-84
2020/12/22 05:40:27;;;;;;;;;;;;;;;;;;5088372;28;20408;-84
2020/12/22 05:42:54;;;;;;;;;;;;;;;;;;5084556;28;20378;-84
2020/12/22 05:45:20;;;;;;;;;;;;;;;;;;5098473;28;20383;-84
2020/12/22 05:47:46;;;;;;;;;;;;;;;;;;5097194;28;20402;-84
2020/12/22 05:50:13;;;;;;;;;;;;;;;;;;5098572;28;20375;-85
2020/12/22 05:52:39;;;;;;;;;;;;;;;;;;5097516;28;20404;-85
2020/12/22 05:55:05;;;;;;;;;;;;;;;;;;5082161;28;20442;-85
2020/12/22 05:57:32;;;;;;;;;;;;;;;;;;5099275;28;20401;-84
2020/12/22 05:59:58;;;;;;;;;;;;;;;;;;5096688;28;20370;-83
2020/12/22 06:02:25;;;;;;;;;;;;;;;;;;5085959;28;20385;-84
2020/12/22 06:04:51;;;;;;;;;;;;;;;;;;5082435;28;20436;-84
2020/12/22 06:07:17;;;;;;;;;;;;;;;;;;5082866;28;20881;-84
2020/12/22 06:09:44;;;;;;;;;;;;;;;;;;5094504;28;20440;-84
2020/12/22 06:12:10;;;;;;;;;;;;;;;;;;5086707;28;20387;-84
2020/12/22 06:14:36;;;;;;;;;;;;;;;;;;5081569;28;20405;-84
2020/12/22 06:17:03;;;;;;;;;;;;;;;;;;5087772;28;20412;-84
2020/12/22 06:19:29;;;;;;;;;;;;;;;;;;5090150;28;20435;-84
2020/12/22 06:21:55;;;;;;;;;;;;;;;;;;5086566;28;20831;-85
2020/12/22 06:24:22;;;;;;;;;;;;;;;;;;5080905;28;20389;-85
2020/12/22 06:26:48;;;;;;;;;;;;;;;;;;5088415;28;20885;-85
2020/12/22 06:29:15;;;;;;;;;;;;;;;;;;5101631;28;20427;-85
2020/12/22 06:31:41;;;;;;;;;;;;;;;;;;5088306;28;20391;-85
2020/12/22 06:34:07;;;;;;;;;;;;;;;;;;5084350;28;20392;-85
2020/12/22 06:36:34;;;;;;;;;;;;;;;;;;5097543;28;20397;-83
2020/12/22 06:39:01;;;;;;;;;;;;;;;;;;5088714;28;20439;-84
2020/12/22 06:41:28;;;;;;;;;;;;;;;;;;5099708;28;20398;-84
2020/12/22 06:43:54;;;;;;;;;;;;;;;;;;5103482;28;20386;-84
2020/12/22 06:46:20;;;;;;;;;;;;;;;;;;5103910;28;20750;-85
2020/12/22 06:48:47;;;;;;;;;;;;;;;;;;5106321;28;20399;-84
2020/12/22 06:51:13;;;;;;;;;;;;;;;;;;5110831;28;20370;-84
2020/12/22 06:53:41;;;;;;;;;;;;;;;;;;5096415;28;20400;-83
2020/12/22 06:56:07;;;;;;;;;;;;;;;;;;5107941;28;20379;-82
2020/12/22 06:58:34;;;;;;;;;;;;;;;;;;5098773;28;20415;-83
2020/12/22 07:01:00;;;;;;;;;;;;;;;;;;5103002;28;20390;-83
2020/12/22 07:03:26;;;;;;;;;;;;;;;;;;5082222;28;20393;-84
2020/12/22 07:05:53;;;;;;;;;;;;;;;;;;5085871;28;20381;-84
2020/12/22 07:08:19;;;;;;;;;;;;;;;;;;5102543;28;20407;-85
2020/12/22 07:10:46;;;;;;;;;;;;;;;;;;5109004;28;20430;-84
2020/12/22 07:13:12;;;;;;;;;;;;;;;;;;5119505;28;20392;-84
2020/12/22 07:15:39;;;;;;;;;;;;;;;;;;5106099;28;20389;-84
2020/12/22 07:18:05;;;;;;;;;;;;;;;;;;5107867;28;20434;-84
2020/12/22 07:20:31;;;;;;;;;;;;;;;;;;5106460;28;20390;-84
2020/12/22 07:22:58;;;;;;;;;;;;;;;;;;5080884;28;20385;-83
2020/12/22 07:25:24;;;;;;;;;;;;;;;;;;5082788;28;20382;-84
2020/12/22 07:27:50;;;;;;;;;;;;;;;;;;5107189;28;20399;-83
2020/12/22 07:30:17;;;;;;;;;;;;;;;;;;5112450;28;20391;-84
2020/12/22 07:32:43;;;;;;;;;;;;;;;;;;5111827;28;20367;-83
2020/12/22 07:35:10;;;;;;;;;;;;;;;;;;5100029;28;20371;-84
2020/12/22 07:37:36;;;;;;;;;;;;;;;;;;5102861;28;20413;-83
2020/12/22 07:40:03;;;;;;;;;;;;;;;;;;5116786;28;20404;-82
2020/12/22 07:42:29;;;;;;;;;;;;;;;;;;5099077;28;20386;-83
2020/12/22 07:44:55;;;;;;;;;;;;;;;;;;5099049;28;20561;-83
2020/12/22 07:47:22;;;;;;;;;;;;;;;;;;5099778;28;20485;-85
2020/12/22 07:49:48;;;;;;;;;;;;;;;;;;5079797;28;20393;-83
2020/12/22 07:52:16;;;;;;;;;;;;;;;;;;5091240;28;20758;-83
2020/12/22 07:54:42;;;;;;;;;;;;;;;;;;5081060;28;20761;-84
2020/12/22 07:57:09;;;;;;;;;;;;;;;;;;5094656;28;20399;-84
2020/12/22 07:59:35;;;;;;;;;;;;;;;;;;5081267;28;20384;-84
2020/12/22 08:02:01;;;;;;;;;;;;;;;;;;5081236;28;20389;-85
2020/12/22 08:04:28;;;;;;;;;;;;;;;;;;5094304;28;20372;-83
2020/12/22 08:06:54;;;;;;;;;;;;;;;;;;5082032;28;20792;-84
2020/12/22 08:09:21;;;;;;;;;;;;;;;;;;5094642;28;20432;-83
2020/12/22 08:11:47;;;;;;;;;;;;;;;;;;5084532;28;20378;-84
2020/12/22 08:14:13;;;;;;;;;;;;;;;;;;5079947;28;20800;-84
2020/12/22 08:19:21;;;;;;;;;;;;;;;;;;5097479;28;20368;-84
2020/12/22 08:21:47;;;;;;;;;;;;;;;;;;5107626;28;20372;-83
2020/12/22 08:24:13;;;;;;;;;;;;;;;;;;5109853;28;20739;-85
2020/12/22 08:26:40;;;;;;;;;;;;;;;;;;5099854;28;20412;-83
2020/12/22 08:29:06;;;;;;;;;;;;;;;;;;5079724;28;20388;-81
2020/12/22 08:31:32;;;;;;;;;;;;;;;;;;5097487;28;20888;-82
2020/12/22 08:33:59;;;;;;;;;;;;;;;;;;5098120;28;20386;-82
2020/12/22 08:36:26;;;;;;;;;;;;;;;;;;5103745;28;20407;-81
2020/12/22 08:38:52;;;;;;;;;;;;;;;;;;5101366;28;20893;-82
2020/12/22 08:41:18;;;;;;;;;;;;;;;;;;5099567;28;20394;-82
2020/12/22 08:43:45;;;;;;;;;;;;;;;;;;5099983;28;20408;-82
2020/12/22 08:48:56;;;;;;;;;;;;;;;;;;5104173;28;20378;-81
2020/12/22 08:51:22;;;;;;;;;;;;;;;;;;5099282;28;20839;-82
2020/12/22 08:53:49;;;;;;;;;;;;;;;;;;5099022;28;20382;-82
2020/12/22 08:56:16;;;;;;;;;;;;;;;;;;5091369;28;20811;-82
2020/12/22 08:58:43;;;;;;;;;;;;;;;;;;5088946;28;20409;-81
2020/12/22 09:01:09;;;;;;;;;;;;;;;;;;5098027;28;20427;-81
2020/12/22 09:03:36;;;;;;;;;;;;;;;;;;5088534;28;20397;-81
2020/12/22 09:06:02;;;;;;;;;;;;;;;;;;5086082;28;20379;-82
2020/12/22 09:16:38;;;;;;;;;;;;;;;;;;5038308;28;20917;-83
2020/12/22 09:19:05;;;;;;;;;;;;;;;;;;5044641;28;20426;-82
2020/12/22 09:21:31;;;;;;;;;;;;;;;;;;5054182;28;20457;-81
2020/12/22 09:23:57;;;;;;;;;;;;;;;;;;5037797;28;20894;-82
2020/12/22 09:26:24;;;;;;;;;;;;;;;;;;5047798;28;20387;-83
2020/12/22 09:28:50;;;;;;;;;;;;;;;;;;5040217;28;21021;-82
2020/12/22 09:31:17;;;;;;;;;;;;;;;;;;5037371;28;20395;-82
2020/12/22 09:33:43;;;;;;;;;;;;;;;;;;5045928;28;20383;-81
2020/12/22 09:36:09;;;;;;;;;;;;;;;;;;5052830;28;20954;-83
2020/12/22 09:38:36;;;;;;;;;;;;;;;;;;5034059;28;20465;-83
2020/12/22 09:41:02;;;;;;;;;;;;;;;;;;5033666;28;20802;-82
2020/12/22 09:43:28;;;;;;;;;;;;;;;;;;5047764;28;20386;-81
2020/12/22 09:45:55;;;;;;;;;;;;;;;;;;5051732;28;20418;-82
2020/12/22 09:48:21;;;;;;;;;;;;;;;;;;5044515;28;20501;-83
2020/12/22 09:50:48;;;;;;;;;;;;;;;;;;5059901;28;20371;-84
2020/12/22 09:53:14;;;;;;;;;;;;;;;;;;5096726;28;20728;-85
2020/12/22 09:55:40;;;;;;;;;;;;;;;;;;5097983;28;20375;-83
2020/12/22 09:58:07;;;;;;;;;;;;;;;;;;5087789;28;20413;-83
2020/12/22 10:00:33;;;;;;;;;;;;;;;;;;5080740;28;20398;-83
2020/12/22 10:02:59;;;;;;;;;;;;;;;;;;5096122;28;20398;-83
2020/12/22 10:05:26;;;;;;;;;;;;;;;;;;5097371;28;20402;-83
2020/12/22 10:07:52;;;;;;;;;;;;;;;;;;5098483;28;20402;-83
2020/12/22 10:10:19;;;;;;;;;;;;;;;;;;5102087;28;20840;-83
2020/12/22 10:12:45;;;;;;;;;;;;;;;;;;5099424;28;20370;-83
2020/12/22 10:15:11;;;;;;;;;;;;;;;;;;5077226;28;20385;-83
2020/12/22 10:17:38;;;;;;;;;;;;;;;;;;5076516;28;20402;-83
2020/12/22 10:20:04;;;;;;;;;;;;;;;;;;5076102;28;20385;-84
2020/12/22 10:22:30;;;;;;;;;;;;;;;;;;5075581;28;20300;-83
2020/12/22 10:24:57;;;;;;;;;;;;;;;;;;5079135;28;20792;-83
2020/12/22 10:27:23;;;;;;;;;;;;;;;;;;5079505;28;20402;-83
2020/12/22 10:29:50;;;;;;;;;;;;;;;;;;5086699;28;20394;-83
2020/12/22 10:32:16;;;;;;;;;;;;;;;;;;5093848;28;20378;-81
2020/12/22 10:34:42;;;;;;;;;;;;;;;;;;5097727;28;20379;-83
2020/12/22 10:37:09;;;;;;;;;;;;;;;;;;5085597;28;20399;-83
2020/12/22 10:39:35;;;;;;;;;;;;;;;;;;5108230;28;20391;-83
2020/12/22 10:42:02;;;;;;;;;;;;;;;;;;5097502;28;20724;-83
2020/12/22 10:44:28;;;;;;;;;;;;;;;;;;5084385;28;20390;-84
2020/12/22 10:46:54;;;;;;;;;;;;;;;;;;5076336;28;20401;-83
2020/12/22 10:49:21;;;;;;;;;;;;;;;;;;5085653;28;20375;-84
2020/12/22 10:51:47;;;;;;;;;;;;;;;;;;5100130;28;20724;-83
2020/12/22 10:54:13;;;;;;;;;;;;;;;;;;5088604;28;20404;-83
2020/12/22 10:56:40;;;;;;;;;;;;;;;;;;5076373;28;38928;-83
2020/12/22 10:59:06;;;;;;;;;;;;;;;;;;5084082;28;20250;-84
2020/12/22 11:01:33;;;;;;;;;;;;;;;;;;5096400;28;20050;-84
2020/12/22 11:03:59;;;;;;;;;;;;;;;;;;5097138;28;20005;-83
2020/12/22 11:06:35;;;;;;;;;;;;;;;;;;5096639;28;19979;-83
2020/12/22 11:09:01;;;;;;;;;;;;;;;;;;5098629;28;19971;-83
2020/12/22 11:11:28;;;;;;;;;;;;;;;;;;5100437;28;19985;-83
2020/12/22 11:13:54;;;;;;;;;;;;;;;;;;5097626;28;19975;-83
2020/12/22 11:16:21;;;;;;;;;;;;;;;;;;5094394;28;20366;-84
2020/12/22 11:18:47;;;;;;;;;;;;;;;;;;5087788;28;19983;-84
2020/12/22 11:21:13;;;;;;;;;;;;;;;;;;5120736;28;20002;-83
2020/12/22 11:23:40;;;;;;;;;;;;;;;;;;5106196;28;20331;-83
2020/12/22 11:26:10;;;;;;;;;;;;;;;;;;5090425;28;19971;-84
2020/12/22 11:28:36;;;;;;;;;;;;;;;;;;5083658;28;20066;-83
2020/12/22 11:31:03;;;;;;;;;;;;;;;;;;5085087;28;19971;-82
2020/12/22 11:33:29;;;;;;;;;;;;;;;;;;5080739;28;19972;-83
2020/12/22 11:35:55;;;;;;;;;;;;;;;;;;5080387;28;20002;-82
2020/12/22 11:38:22;;;;;;;;;;;;;;;;;;5098041;28;20040;-82
2020/12/22 11:40:48;;;;;;;;;;;;;;;;;;5085035;28;19971;-82
2020/12/22 11:43:14;;;;;;;;;;;;;;;;;;5079690;28;19998;-82
2020/12/22 11:45:41;;;;;;;;;;;;;;;;;;5079634;28;19975;-82
2020/12/22 11:48:07;;;;;;;;;;;;;;;;;;5079204;28;19992;-82
2020/12/22 11:50:33;;;;;;;;;;;;;;;;;;5079504;28;19975;-82
2020/12/22 11:53:00;;;;;;;;;;;;;;;;;;5079584;28;19976;-82
2020/12/22 11:55:26;;;;;;;;;;;;;;;;;;5078972;28;19975;-82
2020/12/22 11:57:53;;;;;;;;;;;;;;;;;;5086011;28;19994;-82
2020/12/22 12:00:19;;;;;;;;;;;;;;;;;;5099061;28;19975;-82
2020/12/22 12:02:45;;;;;;;;;;;;;;;;;;5099500;28;19979;-82
2020/12/22 12:05:12;;;;;;;;;;;;;;;;;;5100716;28;20073;-82
2020/12/22 12:07:38;;;;;;;;;;;;;;;;;;5102004;28;19994;-82
2020/12/22 12:10:04;;;;;;;;;;;;;;;;;;5113558;28;20009;-83
2020/12/22 12:12:31;;;;;;;;;;;;;;;;;;5093459;28;20057;-82
2020/12/22 12:14:57;;;;;;;;;;;;;;;;;;5080632;28;20012;-82
2020/12/22 12:17:24;;;;;;;;;;;;;;;;;;5106768;28;20020;-82
2020/12/22 12:19:50;;;;;;;;;;;;;;;;;;5105293;28;20069;-83
2020/12/22 12:22:16;;;;;;;;;;;;;;;;;;5096418;28;20023;-83
2020/12/22 12:24:43;;;;;;;;;;;;;;;;;;5105322;28;20009;-85
2020/12/22 12:27:09;;;;;;;;;;;;;;;;;;5099106;28;20086;-85
2020/12/22 12:29:36;;;;;;;;;;;;;;;;;;5086816;28;20009;-85
2020/12/22 12:32:02;;;;;;;;;;;;;;;;;;5088797;28;20054;-85
2020/12/22 12:34:29;;;;;;;;;;;;;;;;;;5108322;28;20005;-86
2020/12/22 12:36:55;;;;;;;;;;;;;;;;;;5109048;28;20027;-85
2020/12/22 12:39:21;;;;;;;;;;;;;;;;;;5093529;28;20000;-82
2020/12/22 12:41:48;;;;;;;;;;;;;;;;;;5108306;28;20008;-84
2020/12/22 12:44:14;;;;;;;;;;;;;;;;;;5117122;28;20005;-83
2020/12/22 12:46:41;;;;;;;;;;;;;;;;;;5097938;28;19985;-85
2020/12/22 12:49:07;;;;;;;;;;;;;;;;;;5108876;28;19985;-85
2020/12/22 12:51:34;;;;;;;;;;;;;;;;;;5114201;28;20000;-87
2020/12/22 12:54:01;;;;;;;;;;;;;;;;;;5113022;28;20001;-88
2020/12/22 12:56:27;;;;;;;;;;;;;;;;;;5107116;28;20040;-84
2020/12/22 12:58:53;;;;;;;;;;;;;;;;;;5107687;28;20013;-86
2020/12/22 13:01:20;;;;;;;;;;;;;;;;;;5116267;28;20045;-84
2020/12/22 13:03:46;;;;;;;;;;;;;;;;;;5100863;28;20442;-83
2020/12/22 13:06:13;;;;;;;;;;;;;;;;;;5079882;28;20012;-84
2020/12/22 13:08:39;;;;;;;;;;;;;;;;;;5080478;28;20027;-84
2020/12/22 13:11:05;;;;;;;;;;;;;;;;;;5081686;28;20009;-84
2020/12/22 13:13:32;;;;;;;;;;;;;;;;;;5081330;28;19997;-84
2020/12/22 13:15:58;;;;;;;;;;;;;;;;;;5081709;28;19932;-85
2020/12/22 13:18:24;;;;;;;;;;;;;;;;;;5086402;28;19928;-84
2020/12/22 13:20:51;;;;;;;;;;;;;;;;;;5081626;28;20346;-84
2020/12/22 13:23:17;;;;;;;;;;;;;;;;;;5102055;28;19920;-85
2020/12/22 13:25:44;;;;;;;;;;;;;;;;;;5079895;28;19920;-85
2020/12/22 13:28:10;;;;;;;;;;;;;;;;;;5099282;28;20396;-85
2020/12/22 13:30:36;;;;;;;;;;;;;;;;;;5089105;28;20027;-85
2020/12/22 13:33:03;;;;;;;;;;;;;;;;;;5088997;28;19971;-85
2020/12/22 13:35:29;;;;;;;;;;;;;;;;;;5097137;28;19993;-85
2020/12/22 13:37:55;;;;;;;;;;;;;;;;;;5090482;28;20026;-85
2020/12/22 13:40:22;;;;;;;;;;;;;;;;;;5092778;28;20005;-85
2020/12/22 13:42:48;;;;;;;;;;;;;;;;;;5085369;28;19967;-86
2020/12/22 13:45:14;;;;;;;;;;;;;;;;;;5078559;28;19971;-85
2020/12/22 13:47:41;;;;;;;;;;;;;;;;;;5088533;28;19987;-88
2020/12/22 13:50:07;;;;;;;;;;;;;;;;;;5108040;28;19982;-85
2020/12/22 13:52:34;;;;;;;;;;;;;;;;;;5087740;28;20027;-87
2020/12/22 13:55:00;;;;;;;;;;;;;;;;;;5092055;28;19975;-86
2020/12/22 13:57:27;;;;;;;;;;;;;;;;;;5101504;28;20014;-87
2020/12/22 13:59:53;;;;;;;;;;;;;;;;;;5103159;28;19981;-85
2020/12/22 14:02:19;;;;;;;;;;;;;;;;;;5105192;28;20335;-86
2020/12/22 14:04:47;;;;;;;;;;;;;;;;;;5099410;28;19931;-85
2020/12/22 14:07:13;;;;;;;;;;;;;;;;;;5111697;28;19904;-84
2020/12/22 14:09:40;;;;;;;;;;;;;;;;;;5085987;28;19920;-86
2020/12/22 14:12:07;;;;;;;;;;;;;;;;;;5093704;28;19986;-84
2020/12/22 14:14:34;;;;;;;;;;;;;;;;;;5104171;28;19974;-88
2020/12/22 14:17:00;;;;;;;;;;;;;;;;;;5092207;28;19987;-85
2020/12/22 14:19:26;;;;;;;;;;;;;;;;;;5085998;28;19983;-86
2020/12/22 14:21:53;;;;;;;;;;;;;;;;;;5099855;28;20024;-84
2020/12/22 14:24:19;;;;;;;;;;;;;;;;;;5094876;28;19978;-84
2020/12/22 14:26:45;;;;;;;;;;;;;;;;;;5100676;28;19975;-84
2020/12/22 14:29:12;;;;;;;;;;;;;;;;;;5099610;28;19978;-84
2020/12/22 14:31:39;;;;;;;;;;;;;;;;;;5097677;28;19971;-84
2020/12/22 14:34:05;;;;;;;;;;;;;;;;;;5100159;28;19998;-84
2020/12/22 14:36:32;;;;;;;;;;;;;;;;;;5097738;28;19975;-84
2020/12/22 14:38:58;;;;;;;;;;;;;;;;;;5098426;28;20049;-85
2020/12/22 14:41:25;;;;;;;;;;;;;;;;;;5081843;28;19972;-85
2020/12/22 14:43:53;;;;;;;;;;;;;;;;;;5086512;28;19975;-86
2020/12/22 14:46:19;;;;;;;;;;;;;;;;;;5093616;28;19967;-86
2020/12/22 14:48:46;;;;;;;;;;;;;;;;;;5083376;28;20384;-85
2020/12/22 14:51:13;;;;;;;;;;;;;;;;;;5104715;28;19982;-86
2020/12/22 14:53:39;;;;;;;;;;;;;;;;;;5107561;28;19973;-86
2020/12/22 14:56:06;;;;;;;;;;;;;;;;;;5109416;28;20024;-86
2020/12/22 14:58:33;;;;;;;;;;;;;;;;;;5100993;28;19941;-86
2020/12/22 15:00:59;;;;;;;;;;;;;;;;;;5092130;28;19971;-86
2020/12/22 15:03:25;;;;;;;;;;;;;;;;;;5086536;28;20397;-86
2020/12/22 15:05:52;;;;;;;;;;;;;;;;;;5090910;28;19971;-86
2020/12/22 15:08:18;;;;;;;;;;;;;;;;;;5103345;28;20119;-85
2020/12/22 15:10:45;;;;;;;;;;;;;;;;;;5097179;28;19924;-85
2020/12/22 15:13:11;;;;;;;;;;;;;;;;;;5090706;28;20016;-83
2020/12/22 15:15:38;;;;;;;;;;;;;;;;;;5111835;28;19986;-83
2020/12/22 15:18:04;;;;;;;;;;;;;;;;;;5101897;28;19920;-83
2020/12/22 15:20:30;;;;;;;;;;;;;;;;;;5098727;28;19991;-84
2020/12/22 15:22:58;;;;;;;;;;;;;;;;;;5100534;28;19971;-83
2020/12/22 15:25:24;;;;;;;;;;;;;;;;;;5102230;28;19973;-84
2020/12/22 15:27:51;;;;;;;;;;;;;;;;;;5100138;28;20447;-83
2020/12/22 15:30:17;;;;;;;;;;;;;;;;;;5101317;28;19978;-83
2020/12/22 15:32:43;;;;;;;;;;;;;;;;;;5101608;28;19934;-83
2020/12/22 15:35:10;;;;;;;;;;;;;;;;;;5103555;28;19979;-83
2020/12/22 15:37:36;;;;;;;;;;;;;;;;;;5110650;28;19920;-83
2020/12/22 15:40:03;;;;;;;;;;;;;;;;;;5099826;28;19978;-83
2020/12/22 15:42:29;;;;;;;;;;;;;;;;;;5099988;28;20384;-83
2020/12/22 15:44:56;;;;;;;;;;;;;;;;;;5099975;28;19923;-82
2020/12/22 15:47:22;;;;;;;;;;;;;;;;;;5099585;28;19990;-83
2020/12/22 15:49:49;;;;;;;;;;;;;;;;;;5078956;28;20005;-83
2020/12/22 15:52:16;;;;;;;;;;;;;;;;;;5079446;28;20420;-83
2020/12/22 15:54:43;;;;;;;;;;;;;;;;;;5093202;28;19967;-83
2020/12/22 15:57:09;;;;;;;;;;;;;;;;;;5095556;28;19997;-82
2020/12/22 15:59:35;;;;;;;;;;;;;;;;;;5102213;28;20002;-84
2020/12/22 16:04:45;;;;;;;;;;;;;;;;;;5085823;28;19993;-82
2020/12/22 16:07:13;;;;;;;;;;;;;;;;;;5082891;28;19927;-81
2020/12/22 16:09:40;;;;;;;;;;;;;;;;;;5077510;28;19968;-82
2020/12/22 16:12:10;;;;;;;;;;;;;;;;;;5077949;28;19971;-84
2020/12/22 16:14:36;;;;;;;;;;;;;;;;;;5076512;28;20021;-83
2020/12/22 16:17:03;;;;;;;;;;;;;;;;;;5081051;28;19996;-86
2020/12/22 16:19:30;;;;;;;;;;;;;;;;;;5091724;28;19975;-85
2020/12/22 16:21:56;;;;;;;;;;;;;;;;;;5624739;22;19980;-84
2020/12/22 16:43:36;;;;;;;;;;;;;;;;;;4977134;29;20393;-84
2020/12/22 16:46:03;;;;;;;;;;;;;;;;;;4976080;29;20438;-82
2020/12/22 16:48:31;;;;;;;;;;;;;;;;;;4978532;28;20418;-83
2020/12/22 16:50:58;;;;;;;;;;;;;;;;;;4979017;29;20398;-84
2020/12/22 16:53:25;;;;;;;;;;;;;;;;;;4980041;29;20453;-83
2020/12/22 16:55:52;;;;;;;;;;;;;;;;;;4980511;28;20389;-82
2020/12/22 16:58:21;;;;;;;;;;;;;;;;;;4980561;28;20411;-83
2020/12/22 17:00:47;;;;;;;;;;;;;;;;;;4981118;28;20371;-82
2020/12/22 17:03:14;;;;;;;;;;;;;;;;;;4983383;28;20429;-81
2020/12/22 17:05:40;;;;;;;;;;;;;;;;;;5017272;28;20385;-83
2020/12/22 17:08:06;;;;;;;;;;;;;;;;;;5015407;28;20445;-82
2020/12/22 17:10:33;;;;;;;;;;;;;;;;;;5019483;28;20376;-82
2020/12/22 17:12:59;;;;;;;;;;;;;;;;;;5019603;28;20383;-80
2020/12/22 17:15:26;;;;;;;;;;;;;;;;;;5017382;28;20468;-83